sensor_id;sensor_type;location;lat;lon;timestamp;pressure;altitude;pressure_sealevel;temperature;humidity
50364;BME280;36272;59.400;17.982;2023-02-18T00:04:46;97842.38;;;6.20;98.99
50364;BME280;36272;59.400;17.982;2023-02-18T00:09:48;97845.25;;;6.19;99.41
50364;BME280;36272;59.400;17.982;2023-02-18T00:14:49;97846.63;;;6.21;99.23
50364;BME280;36272;59.400;17.982;2023-02-18T00:19:51;97851.13;;;6.16;99.15
50364;BME280;36272;59.400;17.982;2023-02-18T00:24:53;97867.28;;;6.14;99.16
50364;BME280;36272;59.400;17.982;2023-02-18T00:29:54;97869.41;;;6.12;99.31
50364;BME280;36272;59.400;17.982;2023-02-18T00:34:56;97886.41;;;6.11;99.19
50364;BME280;36272;59.400;17.982;2023-02-18T00:39:58;97894.34;;;6.06;99.28
50364;BME280;36272;59.400;17.982;2023-02-18T00:44:59;97907.06;;;6.04;98.96
50364;BME280;36272;59.400;17.982;2023-02-18T00:50:01;97924.31;;;6.01;99.04
50364;BME280;36272;59.400;17.982;2023-02-18T00:55:03;97933.00;;;5.96;98.84
50364;BME280;36272;59.400;17.982;2023-02-18T01:00:08;97934.63;;;5.92;99.08
50364;BME280;36272;59.400;17.982;2023-02-18T01:05:10;97956.59;;;5.88;98.51
50364;BME280;36272;59.400;17.982;2023-02-18T01:10:17;97942.53;;;5.82;98.92
50364;BME280;36272;59.400;17.982;2023-02-18T01:15:18;97961.84;;;5.77;97.95
50364;BME280;36272;59.400;17.982;2023-02-18T01:20:20;97970.56;;;5.68;97.94
50364;BME280;36272;59.400;17.982;2023-02-18T01:25:22;97979.50;;;5.56;97.40
50364;BME280;36272;59.400;17.982;2023-02-18T01:30:24;97984.72;;;5.41;97.13
50364;BME280;36272;59.400;17.982;2023-02-18T01:35:26;98005.56;;;5.32;96.94
50364;BME280;36272;59.400;17.982;2023-02-18T01:40:29;98014.53;;;5.20;96.74
50364;BME280;36272;59.400;17.982;2023-02-18T01:50:39;98031.81;;;5.01;96.76
50364;BME280;36272;59.400;17.982;2023-02-18T01:55:42;98068.47;;;4.82;96.14
50364;BME280;36272;59.400;17.982;2023-02-18T02:00:44;98082.84;;;4.64;95.78
50364;BME280;36272;59.400;17.982;2023-02-18T02:05:46;98097.13;;;4.40;95.60
50364;BME280;36272;59.400;17.982;2023-02-18T02:11:00;98092.72;;;4.29;95.66
50364;BME280;36272;59.400;17.982;2023-02-18T02:16:11;98086.16;;;4.31;95.04
50364;BME280;36272;59.400;17.982;2023-02-18T02:37:53;98120.56;;;3.75;95.68
50364;BME280;36272;59.400;17.982;2023-02-18T02:48:42;98143.72;;;3.39;94.09
50364;BME280;36272;59.400;17.982;2023-02-18T02:53:25;98128.59;;;3.34;95.15
50364;BME280;36272;59.400;17.982;2023-02-18T02:58:28;98152.38;;;3.34;95.53
50364;BME280;36272;59.400;17.982;2023-02-18T03:14:09;98185.84;;;3.29;95.97
50364;BME280;36272;59.400;17.982;2023-02-18T03:19:23;98180.22;;;3.25;96.25
50364;BME280;36272;59.400;17.982;2023-02-18T03:24:32;98195.28;;;3.24;95.96
50364;BME280;36272;59.400;17.982;2023-02-18T03:29:35;98203.09;;;3.19;96.16
50364;BME280;36272;59.400;17.982;2023-02-18T03:34:41;98211.38;;;3.11;96.29
50364;BME280;36272;59.400;17.982;2023-02-18T03:39:47;98215.06;;;3.10;96.30
50364;BME280;36272;59.400;17.982;2023-02-18T03:44:51;98244.25;;;3.03;96.28
50364;BME280;36272;59.400;17.982;2023-02-18T03:49:53;98253.44;;;3.01;96.26
50364;BME280;36272;59.400;17.982;2023-02-18T03:54:55;98275.75;;;2.93;96.27
50364;BME280;36272;59.400;17.982;2023-02-18T03:59:56;98269.06;;;2.90;96.37
50364;BME280;36272;59.400;17.982;2023-02-18T04:04:58;98286.75;;;2.90;96.75
50364;BME280;36272;59.400;17.982;2023-02-18T04:10:00;98298.13;;;2.90;96.71
50364;BME280;36272;59.400;17.982;2023-02-18T04:15:02;98297.53;;;2.88;96.83
50364;BME280;36272;59.400;17.982;2023-02-18T04:20:04;98299.38;;;2.88;96.69
50364;BME280;36272;59.400;17.982;2023-02-18T04:25:07;98313.63;;;2.87;97.07
50364;BME280;36272;59.400;17.982;2023-02-18T04:30:09;98319.94;;;2.86;97.08
50364;BME280;36272;59.400;17.982;2023-02-18T04:35:10;98322.69;;;2.91;97.30
50364;BME280;36272;59.400;17.982;2023-02-18T04:40:12;98340.28;;;2.85;97.15
50364;BME280;36272;59.400;17.982;2023-02-18T04:45:14;98366.69;;;2.85;97.31
50364;BME280;36272;59.400;17.982;2023-02-18T04:50:16;98382.75;;;2.83;97.17
50364;BME280;36272;59.400;17.982;2023-02-18T04:55:18;98389.06;;;2.82;97.53
50364;BME280;36272;59.400;17.982;2023-02-18T05:00:19;98396.28;;;2.87;97.26
50364;BME280;36272;59.400;17.982;2023-02-18T05:05:21;98416.28;;;2.83;97.31
50364;BME280;36272;59.400;17.982;2023-02-18T05:10:23;98434.75;;;2.83;97.31
50364;BME280;36272;59.400;17.982;2023-02-18T05:15:25;98432.91;;;2.83;97.38
50364;BME280;36272;59.400;17.982;2023-02-18T05:20:27;98464.25;;;2.80;97.39
50364;BME280;36272;59.400;17.982;2023-02-18T05:25:29;98458.97;;;2.80;97.45
50364;BME280;36272;59.400;17.982;2023-02-18T05:30:30;98472.97;;;2.80;97.55
50364;BME280;36272;59.400;17.982;2023-02-18T05:35:32;98484.56;;;2.79;97.15
50364;BME280;36272;59.400;17.982;2023-02-18T05:40:34;98485.50;;;2.85;97.16
50364;BME280;36272;59.400;17.982;2023-02-18T05:45:36;98487.13;;;2.86;97.07
50364;BME280;36272;59.400;17.982;2023-02-18T05:50:37;98500.31;;;2.86;96.96
50364;BME280;36272;59.400;17.982;2023-02-18T05:55:39;98520.41;;;2.87;96.71
50364;BME280;36272;59.400;17.982;2023-02-18T06:00:41;98534.75;;;2.91;96.72
50364;BME280;36272;59.400;17.982;2023-02-18T06:05:43;98543.25;;;2.93;96.69
50364;BME280;36272;59.400;17.982;2023-02-18T06:10:45;98561.16;;;2.91;96.65
50364;BME280;36272;59.400;17.982;2023-02-18T06:15:49;98556.47;;;2.93;96.47
50364;BME280;36272;59.400;17.982;2023-02-18T06:20:52;98592.66;;;2.93;96.52
50364;BME280;36272;59.400;17.982;2023-02-18T06:25:53;98591.03;;;2.92;96.36
50364;BME280;36272;59.400;17.982;2023-02-18T06:30:55;98592.41;;;2.94;96.40
50364;BME280;36272;59.400;17.982;2023-02-18T06:36:03;98599.31;;;2.95;96.77
50364;BME280;36272;59.400;17.982;2023-02-18T06:41:08;98613.47;;;3.01;96.21
50364;BME280;36272;59.400;17.982;2023-02-18T06:46:09;98623.59;;;3.04;96.26
50364;BME280;36272;59.400;17.982;2023-02-18T06:51:11;98642.44;;;3.08;96.06
50364;BME280;36272;59.400;17.982;2023-02-18T06:56:13;98648.31;;;3.10;96.16
50364;BME280;36272;59.400;17.982;2023-02-18T07:01:15;98651.88;;;3.16;96.17
50364;BME280;36272;59.400;17.982;2023-02-18T07:06:16;98670.16;;;3.17;96.05
50364;BME280;36272;59.400;17.982;2023-02-18T07:11:18;98675.31;;;3.12;96.02
50364;BME280;36272;59.400;17.982;2023-02-18T07:16:20;98687.63;;;3.18;96.08
50364;BME280;36272;59.400;17.982;2023-02-18T07:21:21;98695.69;;;3.23;95.80
50364;BME280;36272;59.400;17.982;2023-02-18T07:26:23;98720.50;;;3.22;95.97
50364;BME280;36272;59.400;17.982;2023-02-18T07:31:25;98712.59;;;3.22;95.83
50364;BME280;36272;59.400;17.982;2023-02-18T07:36:26;98716.84;;;3.23;95.58
50364;BME280;36272;59.400;17.982;2023-02-18T07:41:28;98724.31;;;3.26;95.40
50364;BME280;36272;59.400;17.982;2023-02-18T07:46:39;98734.91;;;3.26;95.45
50364;BME280;36272;59.400;17.982;2023-02-18T07:51:41;98738.72;;;3.31;95.03
50364;BME280;36272;59.400;17.982;2023-02-18T07:56:43;98741.22;;;3.25;94.95
50364;BME280;36272;59.400;17.982;2023-02-18T08:01:45;98761.97;;;3.22;94.78
50364;BME280;36272;59.400;17.982;2023-02-18T08:06:48;98761.44;;;3.32;94.78
50364;BME280;36272;59.400;17.982;2023-02-18T08:11:50;98780.53;;;3.34;94.44
50364;BME280;36272;59.400;17.982;2023-02-18T08:16:51;98800.44;;;3.36;94.49
50364;BME280;36272;59.400;17.982;2023-02-18T08:21:53;98791.03;;;3.40;94.33
50364;BME280;36272;59.400;17.982;2023-02-18T08:26:55;98805.19;;;3.46;94.13
50364;BME280;36272;59.400;17.982;2023-02-18T08:31:57;98793.75;;;3.52;93.81
50364;BME280;36272;59.400;17.982;2023-02-18T08:37:00;98810.41;;;3.53;94.04
50364;BME280;36272;59.400;17.982;2023-02-18T08:42:04;98819.28;;;3.59;93.60
50364;BME280;36272;59.400;17.982;2023-02-18T08:47:06;98824.56;;;3.59;93.08
50364;BME280;36272;59.400;17.982;2023-02-18T08:52:12;98831.19;;;3.68;93.49
50364;BME280;36272;59.400;17.982;2023-02-18T08:57:14;98864.44;;;3.76;92.96
50364;BME280;36272;59.400;17.982;2023-02-18T09:02:16;98870.66;;;3.81;92.76
50364;BME280;36272;59.400;17.982;2023-02-18T09:07:17;98878.75;;;3.86;92.42
50364;BME280;36272;59.400;17.982;2023-02-18T09:12:19;98889.25;;;3.93;92.85
50364;BME280;36272;59.400;17.982;2023-02-18T09:17:21;98896.16;;;3.94;92.29
50364;BME280;36272;59.400;17.982;2023-02-18T09:22:22;98899.75;;;4.00;92.22
50364;BME280;36272;59.400;17.982;2023-02-18T09:27:25;98920.81;;;4.07;92.07
50364;BME280;36272;59.400;17.982;2023-02-18T09:32:27;98923.47;;;4.07;91.76
50364;BME280;36272;59.400;17.982;2023-02-18T09:37:29;98927.38;;;4.04;91.71
50364;BME280;36272;59.400;17.982;2023-02-18T09:42:32;98928.41;;;4.03;91.79
50364;BME280;36272;59.400;17.982;2023-02-18T09:47:38;98928.13;;;4.11;91.37
50364;BME280;36272;59.400;17.982;2023-02-18T09:52:41;98934.00;;;4.13;91.81
50364;BME280;36272;59.400;17.982;2023-02-18T09:57:48;98935.81;;;4.13;91.53
50364;BME280;36272;59.400;17.982;2023-02-18T10:03:05;98945.41;;;4.26;91.44
50364;BME280;36272;59.400;17.982;2023-02-18T10:08:27;98962.03;;;4.33;91.12
50364;BME280;36272;59.400;17.982;2023-02-18T10:13:32;98960.69;;;4.42;91.48
50364;BME280;36272;59.400;17.982;2023-02-18T10:19:00;98967.63;;;4.55;91.55
50364;BME280;36272;59.400;17.982;2023-02-18T10:29:18;98966.84;;;4.55;91.39
50364;BME280;36272;59.400;17.982;2023-02-18T10:39:49;98985.75;;;4.70;90.89
50364;BME280;36272;59.400;17.982;2023-02-18T10:50:41;98992.38;;;4.80;91.17
50364;BME280;36272;59.400;17.982;2023-02-18T10:55:45;99001.75;;;4.94;90.80
50364;BME280;36272;59.400;17.982;2023-02-18T11:00:47;99010.53;;;5.06;90.16
50364;BME280;36272;59.400;17.982;2023-02-18T11:05:51;99010.91;;;5.22;90.08
50364;BME280;36272;59.400;17.982;2023-02-18T11:10:55;99022.91;;;5.48;88.76
50364;BME280;36272;59.400;17.982;2023-02-18T11:21:04;99018.28;;;5.79;87.21
50364;BME280;36272;59.400;17.982;2023-02-18T11:26:11;99023.72;;;5.73;87.42
50364;BME280;36272;59.400;17.982;2023-02-18T11:31:23;99035.72;;;5.75;87.81
50364;BME280;36272;59.400;17.982;2023-02-18T11:36:31;99045.28;;;5.76;88.50
50364;BME280;36272;59.400;17.982;2023-02-18T11:41:41;99050.38;;;5.78;87.88
50364;BME280;36272;59.400;17.982;2023-02-18T11:47:18;99056.84;;;5.70;88.78
50364;BME280;36272;59.400;17.982;2023-02-18T11:52:32;99064.69;;;5.77;88.80
50364;BME280;36272;59.400;17.982;2023-02-18T11:57:41;99073.47;;;5.89;88.11
50364;BME280;36272;59.400;17.982;2023-02-18T12:02:43;99091.00;;;6.14;86.25
50364;BME280;36272;59.400;17.982;2023-02-18T12:07:51;99086.59;;;7.65;83.97
50364;BME280;36272;59.400;17.982;2023-02-18T12:18:40;99080.56;;;8.92;79.12
50364;BME280;36272;59.400;17.982;2023-02-18T12:24:05;99098.75;;;8.12;81.59
50364;BME280;36272;59.400;17.982;2023-02-18T12:29:46;99097.72;;;7.79;81.36
50364;BME280;36272;59.400;17.982;2023-02-18T12:56:46;99142.38;;;8.28;80.38
50364;BME280;36272;59.400;17.982;2023-02-18T13:03:21;99140.81;;;9.76;78.08
50364;BME280;36272;59.400;17.982;2023-02-18T13:13:23;99168.09;;;11.38;74.84
50364;BME280;36272;59.400;17.982;2023-02-18T13:18:31;99150.94;;;10.44;76.95
50364;BME280;36272;59.400;17.982;2023-02-18T13:23:42;99188.47;;;9.34;78.39
50364;BME280;36272;59.400;17.982;2023-02-18T13:34:52;99181.63;;;7.64;82.33
50364;BME280;36272;59.400;17.982;2023-02-18T13:39:56;99195.88;;;7.58;83.10
50364;BME280;36272;59.400;17.982;2023-02-18T13:55:29;99215.28;;;7.01;82.89
50364;BME280;36272;59.400;17.982;2023-02-18T14:00:41;99206.44;;;6.71;83.84
50364;BME280;36272;59.400;17.982;2023-02-18T14:05:48;99229.78;;;6.69;84.32
50364;BME280;36272;59.400;17.982;2023-02-18T14:16:14;99244.53;;;6.41;84.42
50364;BME280;36272;59.400;17.982;2023-02-18T14:31:32;99266.22;;;6.14;83.68
50364;BME280;36272;59.400;17.982;2023-02-18T14:52:48;99311.88;;;5.92;83.48
50364;BME280;36272;59.400;17.982;2023-02-18T15:03:26;99307.28;;;5.69;84.43
50364;BME280;36272;59.400;17.982;2023-02-18T15:08:36;99315.75;;;5.59;83.87
50364;BME280;36272;59.400;17.982;2023-02-18T15:13:44;99319.16;;;5.48;83.86
50364;BME280;36272;59.400;17.982;2023-02-18T15:18:53;99324.97;;;5.38;83.90
50364;BME280;36272;59.400;17.982;2023-02-18T15:24:05;99334.63;;;5.32;84.31
50364;BME280;36272;59.400;17.982;2023-02-18T15:29:25;99353.78;;;5.34;84.14
50364;BME280;36272;59.400;17.982;2023-02-18T15:34:36;99354.66;;;5.28;83.51
50364;BME280;36272;59.400;17.982;2023-02-18T15:39:39;99373.56;;;5.13;83.59
50364;BME280;36272;59.400;17.982;2023-02-18T15:44:47;99383.50;;;4.99;83.23
50364;BME280;36272;59.400;17.982;2023-02-18T15:49:56;99390.75;;;4.85;83.47
50364;BME280;36272;59.400;17.982;2023-02-18T16:01:06;99415.75;;;4.64;83.76
50364;BME280;36272;59.400;17.982;2023-02-18T16:06:30;99426.44;;;4.51;84.54
50364;BME280;36272;59.400;17.982;2023-02-18T16:11:34;99421.81;;;4.39;84.10
50364;BME280;36272;59.400;17.982;2023-02-18T16:16:41;99449.16;;;4.33;84.29
50364;BME280;36272;59.400;17.982;2023-02-18T16:21:43;99446.91;;;4.30;83.80
50364;BME280;36272;59.400;17.982;2023-02-18T16:26:45;99461.00;;;4.24;84.43
50364;BME280;36272;59.400;17.982;2023-02-18T16:32:19;99450.41;;;4.24;84.42
50364;BME280;36272;59.400;17.982;2023-02-18T16:37:32;99456.38;;;4.12;84.17
50364;BME280;36272;59.400;17.982;2023-02-18T16:43:19;99466.78;;;4.07;84.56
50364;BME280;36272;59.400;17.982;2023-02-18T16:48:32;99486.13;;;4.01;83.73
50364;BME280;36272;59.400;17.982;2023-02-18T16:53:36;99496.53;;;3.96;83.83
50364;BME280;36272;59.400;17.982;2023-02-18T16:58:38;99504.09;;;3.92;83.58
50364;BME280;36272;59.400;17.982;2023-02-18T17:03:39;99513.22;;;3.90;83.72
50364;BME280;36272;59.400;17.982;2023-02-18T17:08:41;99518.31;;;3.84;83.76
50364;BME280;36272;59.400;17.982;2023-02-18T17:13:43;99535.25;;;3.77;83.07
50364;BME280;36272;59.400;17.982;2023-02-18T17:18:45;99530.59;;;3.72;82.07
50364;BME280;36272;59.400;17.982;2023-02-18T17:24:11;99537.06;;;3.69;80.68
50364;BME280;36272;59.400;17.982;2023-02-18T17:29:15;99563.72;;;3.61;81.26
50364;BME280;36272;59.400;17.982;2023-02-18T17:39:52;99555.59;;;3.49;82.39
50364;BME280;36272;59.400;17.982;2023-02-18T17:44:59;99562.94;;;3.40;82.92
50364;BME280;36272;59.400;17.982;2023-02-18T17:50:01;99585.69;;;3.35;82.88
50364;BME280;36272;59.400;17.982;2023-02-18T17:55:29;99578.59;;;3.29;83.07
50364;BME280;36272;59.400;17.982;2023-02-18T18:00:46;99590.97;;;3.21;83.53
50364;BME280;36272;59.400;17.982;2023-02-18T18:05:49;99588.53;;;3.13;83.54
50364;BME280;36272;59.400;17.982;2023-02-18T18:10:57;99587.28;;;3.09;83.62
50364;BME280;36272;59.400;17.982;2023-02-18T18:16:00;99604.97;;;3.08;83.97
50364;BME280;36272;59.400;17.982;2023-02-18T18:21:01;99621.41;;;3.04;83.09
50364;BME280;36272;59.400;17.982;2023-02-18T18:26:04;99620.56;;;2.96;83.72
50364;BME280;36272;59.400;17.982;2023-02-18T18:31:11;99615.06;;;2.91;83.73
50364;BME280;36272;59.400;17.982;2023-02-18T18:36:15;99636.81;;;2.87;83.83
50364;BME280;36272;59.400;17.982;2023-02-18T18:41:20;99638.81;;;2.78;83.44
50364;BME280;36272;59.400;17.982;2023-02-18T18:46:21;99658.72;;;2.74;83.36
50364;BME280;36272;59.400;17.982;2023-02-18T18:51:28;99651.97;;;2.71;83.58
50364;BME280;36272;59.400;17.982;2023-02-18T18:56:30;99661.13;;;2.68;82.96
50364;BME280;36272;59.400;17.982;2023-02-18T19:01:37;99665.16;;;2.64;83.27
50364;BME280;36272;59.400;17.982;2023-02-18T19:06:39;99669.59;;;2.57;83.31
50364;BME280;36272;59.400;17.982;2023-02-18T19:11:40;99679.28;;;2.50;82.62
50364;BME280;36272;59.400;17.982;2023-02-18T19:16:45;99682.31;;;2.47;82.30
50364;BME280;36272;59.400;17.982;2023-02-18T19:21:46;99683.72;;;2.43;83.32
50364;BME280;36272;59.400;17.982;2023-02-18T19:26:49;99697.50;;;2.38;82.78
50364;BME280;36272;59.400;17.982;2023-02-18T19:31:50;99706.00;;;2.33;82.14
50364;BME280;36272;59.400;17.982;2023-02-18T19:36:52;99700.47;;;2.28;82.12
50364;BME280;36272;59.400;17.982;2023-02-18T19:41:54;99709.16;;;2.22;81.35
50364;BME280;36272;59.400;17.982;2023-02-18T19:46:56;99713.81;;;2.20;80.72
50364;BME280;36272;59.400;17.982;2023-02-18T19:51:59;99711.38;;;2.18;81.19
50364;BME280;36272;59.400;17.982;2023-02-18T19:57:04;99720.84;;;2.13;81.21
50364;BME280;36272;59.400;17.982;2023-02-18T20:02:12;99718.97;;;2.06;80.69
50364;BME280;36272;59.400;17.982;2023-02-18T20:07:16;99717.09;;;2.00;80.43
50364;BME280;36272;59.400;17.982;2023-02-18T20:12:18;99733.06;;;1.92;80.14
50364;BME280;36272;59.400;17.982;2023-02-18T20:17:20;99729.19;;;1.88;79.96
50364;BME280;36272;59.400;17.982;2023-02-18T20:22:22;99740.09;;;1.85;79.80
50364;BME280;36272;59.400;17.982;2023-02-18T20:27:23;99742.28;;;1.81;79.85
50364;BME280;36272;59.400;17.982;2023-02-18T20:32:25;99749.19;;;1.82;78.74
50364;BME280;36272;59.400;17.982;2023-02-18T20:37:27;99747.13;;;1.77;79.47
50364;BME280;36272;59.400;17.982;2023-02-18T20:42:28;99751.34;;;1.72;79.31
50364;BME280;36272;59.400;17.982;2023-02-18T20:47:30;99754.53;;;1.67;78.90
50364;BME280;36272;59.400;17.982;2023-02-18T20:52:32;99762.00;;;1.63;79.65
50364;BME280;36272;59.400;17.982;2023-02-18T20:57:37;99759.75;;;1.60;79.35
50364;BME280;36272;59.400;17.982;2023-02-18T21:02:38;99760.28;;;1.56;78.61
50364;BME280;36272;59.400;17.982;2023-02-18T21:07:40;99771.03;;;1.54;76.67
50364;BME280;36272;59.400;17.982;2023-02-18T21:12:42;99785.56;;;1.50;77.61
50364;BME280;36272;59.400;17.982;2023-02-18T21:17:43;99785.31;;;1.45;77.54
50364;BME280;36272;59.400;17.982;2023-02-18T21:22:45;99777.97;;;1.40;77.90
50364;BME280;36272;59.400;17.982;2023-02-18T21:27:46;99787.25;;;1.36;77.72
50364;BME280;36272;59.400;17.982;2023-02-18T21:32:48;99784.16;;;1.32;76.69
50364;BME280;36272;59.400;17.982;2023-02-18T21:37:50;99789.16;;;1.27;77.04
50364;BME280;36272;59.400;17.982;2023-02-18T21:42:52;99802.22;;;1.21;76.65
50364;BME280;36272;59.400;17.982;2023-02-18T21:47:54;99797.31;;;1.17;76.03
50364;BME280;36272;59.400;17.982;2023-02-18T21:52:55;99804.97;;;1.12;76.76
50364;BME280;36272;59.400;17.982;2023-02-18T21:57:57;99809.16;;;1.07;76.40
50364;BME280;36272;59.400;17.982;2023-02-18T22:02:59;99822.31;;;1.07;75.96
50364;BME280;36272;59.400;17.982;2023-02-18T22:08:01;99833.22;;;1.03;75.58
50364;BME280;36272;59.400;17.982;2023-02-18T22:13:03;99833.78;;;0.99;75.35
50364;BME280;36272;59.400;17.982;2023-02-18T22:18:05;99828.66;;;0.97;75.55
50364;BME280;36272;59.400;17.982;2023-02-18T22:23:06;99829.84;;;0.95;75.37
50364;BME280;36272;59.400;17.982;2023-02-18T22:28:08;99834.50;;;0.93;74.67
50364;BME280;36272;59.400;17.982;2023-02-18T22:33:12;99836.66;;;0.89;75.19
50364;BME280;36272;59.400;17.982;2023-02-18T22:38:14;99851.19;;;0.85;75.02
50364;BME280;36272;59.400;17.982;2023-02-18T22:43:15;99835.91;;;0.80;74.54
50364;BME280;36272;59.400;17.982;2023-02-18T22:48:17;99834.47;;;0.78;74.09
50364;BME280;36272;59.400;17.982;2023-02-18T22:53:18;99842.19;;;0.79;74.19
50364;BME280;36272;59.400;17.982;2023-02-18T22:58:20;99835.41;;;0.85;74.38
50364;BME280;36272;59.400;17.982;2023-02-18T23:03:22;99841.09;;;0.88;73.10
50364;BME280;36272;59.400;17.982;2023-02-18T23:08:24;99840.13;;;0.89;73.23
50364;BME280;36272;59.400;17.982;2023-02-18T23:13:25;99843.38;;;0.92;73.65
50364;BME280;36272;59.400;17.982;2023-02-18T23:18:28;99840.75;;;0.92;73.21
50364;BME280;36272;59.400;17.982;2023-02-18T23:23:30;99848.00;;;0.89;72.59
50364;BME280;36272;59.400;17.982;2023-02-18T23:28:32;99851.00;;;0.86;73.14
50364;BME280;36272;59.400;17.982;2023-02-18T23:33:51;99848.91;;;0.82;72.33
50364;BME280;36272;59.400;17.982;2023-02-18T23:38:55;99845.44;;;0.81;72.55
50364;BME280;36272;59.400;17.982;2023-02-18T23:43:57;99854.34;;;0.80;73.03
50364;BME280;36272;59.400;17.982;2023-02-18T23:48:59;99850.06;;;0.79;72.38
50364;BME280;36272;59.400;17.982;2023-02-18T23:54:01;99847.81;;;0.76;72.28
50364;BME280;36272;59.400;17.982;2023-02-18T23:59:04;99850.97;;;0.71;72.21
